CES5610 ZYHB-ZSPD
Flight info
| Callsign | CES5610 |
|---|---|
| Flight time | N/A |
| Altitude | 34100 |
| Route | DUKIR W655 NIMEM W205 NULRA A588 UDETI W106 MAKNO W5 TAO DCT URBAD W172 LATUX W108 MATNU W115 PINOT |
| Aircraft | MD11/H-SDE1E2E3FGHIJ2J3J4J5M1RWXY/LB1D1 |
Departure
| Time | 2026-05-04 06:20 |
|---|---|
| Airport | Harbin Taiping International Airport (ZYHB) |
Arrival
| Time | N/A |
|---|---|
| Airport | Shanghai Pudong International Airport (ZSPD) |
| Time | Latitude | Longitude | Altitude | Speed | Heading |
|---|---|---|---|---|---|
| 2026-05-04 05:58 | 45.61381 | 126.23037 | 243 ft | 0 kts | 40° |
| 2026-05-04 06:05 | 45.61374 | 126.23028 | 467 ft | 4 kts | 40° |
| 2026-05-04 06:06 | 45.61354 | 126.23003 | 472 ft | 4 kts | 41° |
| 2026-05-04 06:06 | 45.61336 | 126.22981 | 470 ft | 4 kts | 52° |
| 2026-05-04 06:06 | 45.61326 | 126.22957 | 467 ft | 4 kts | 98° |
| 2026-05-04 06:06 | 45.61335 | 126.22929 | 468 ft | 4 kts | 132° |
| 2026-05-04 06:07 | 45.61345 | 126.22913 | 468 ft | 2 kts | 129° |
| 2026-05-04 06:11 | 45.61214 | 126.23142 | 468 ft | 11 kts | 129° |
| 2026-05-04 06:11 | 45.61173 | 126.23182 | 471 ft | 5 kts | 173° |
| 2026-05-04 06:13 | 45.60922 | 126.22911 | 471 ft | 0 kts | 219° |
| 2026-05-04 06:14 | 45.60919 | 126.22908 | 471 ft | 2 kts | 219° |
| 2026-05-04 06:14 | 45.60891 | 126.22877 | 471 ft | 8 kts | 212° |
| 2026-05-04 06:15 | 45.60841 | 126.22876 | 470 ft | 9 kts | 176° |
| 2026-05-04 06:15 | 45.60757 | 126.22918 | 470 ft | 14 kts | 141° |
| 2026-05-04 06:15 | 45.60701 | 126.23010 | 471 ft | 11 kts | 130° |
| 2026-05-04 06:15 | 45.60653 | 126.23092 | 471 ft | 11 kts | 129° |
| 2026-05-04 06:16 | 45.60601 | 126.23181 | 470 ft | 12 kts | 130° |
| 2026-05-04 06:16 | 45.60544 | 126.23278 | 473 ft | 13 kts | 130° |
| 2026-05-04 06:16 | 45.60484 | 126.23379 | 472 ft | 14 kts | 130° |
| 2026-05-04 06:16 | 45.60422 | 126.23486 | 471 ft | 14 kts | 129° |
| 2026-05-04 06:17 | 45.60357 | 126.23596 | 472 ft | 15 kts | 130° |
| 2026-05-04 06:17 | 45.60296 | 126.23701 | 474 ft | 13 kts | 130° |
| 2026-05-04 06:17 | 45.60251 | 126.23768 | 472 ft | 0 kts | 147° |
| 2026-05-04 06:17 | 45.60243 | 126.23775 | 472 ft | 4 kts | 151° |
| 2026-05-04 06:18 | 45.60191 | 126.23759 | 476 ft | 13 kts | 213° |
| 2026-05-04 06:18 | 45.60149 | 126.23711 | 473 ft | 0 kts | 219° |
| 2026-05-04 06:20 | 45.55466 | 126.18399 | 4450 ft | 213 kts | 223° |
| 2026-05-04 06:20 | 45.54243 | 126.16906 | 4573 ft | 244 kts | 223° |
| 2026-05-04 06:21 | 45.48706 | 126.10352 | 8254 ft | 268 kts | 224° |
| 2026-05-04 06:21 | 45.47253 | 126.08649 | 9319 ft | 273 kts | 224° |
| 2026-05-04 06:22 | 45.45765 | 126.06909 | 10251 ft | 283 kts | 225° |
| 2026-05-04 06:22 | 45.44149 | 126.05004 | 10410 ft | 320 kts | 225° |
| 2026-05-04 06:25 | 45.09865 | 125.94722 | 20199 ft | 457 kts | 182° |
| 2026-05-04 06:25 | 45.06659 | 125.94692 | 20892 ft | 463 kts | 182° |
| 2026-05-04 06:26 | 45.03416 | 125.94659 | 21586 ft | 469 kts | 182° |
| 2026-05-04 06:26 | 45.00128 | 125.94626 | 22251 ft | 475 kts | 182° |
| 2026-05-04 06:26 | 44.96798 | 125.94594 | 22924 ft | 481 kts | 182° |
| 2026-05-04 06:26 | 44.93438 | 125.94562 | 23535 ft | 487 kts | 182° |
| 2026-05-04 06:27 | 44.79635 | 125.94436 | 25921 ft | 505 kts | 182° |
| 2026-05-04 06:28 | 44.76103 | 125.94397 | 26490 ft | 509 kts | 184° |
| 2026-05-04 06:28 | 44.72563 | 125.94086 | 27059 ft | 512 kts | 189° |
| 2026-05-04 06:28 | 44.69025 | 125.93454 | 27620 ft | 515 kts | 192° |
| 2026-05-04 06:28 | 44.65474 | 125.92654 | 28164 ft | 518 kts | 193° |
| 2026-05-04 06:29 | 44.61903 | 125.91794 | 28724 ft | 522 kts | 193° |
| 2026-05-04 06:29 | 44.58347 | 125.90940 | 29254 ft | 527 kts | 193° |
| 2026-05-04 06:29 | 44.54668 | 125.90082 | 29788 ft | 531 kts | 193° |
| 2026-05-04 06:29 | 44.51018 | 125.89256 | 30244 ft | 535 kts | 193° |
| 2026-05-04 06:30 | 44.47369 | 125.88451 | 30679 ft | 539 kts | 193° |
| 2026-05-04 06:30 | 44.43657 | 125.87642 | 31129 ft | 540 kts | 193° |
| 2026-05-04 06:30 | 44.39946 | 125.86839 | 31636 ft | 540 kts | 193° |
| 2026-05-04 06:30 | 44.36232 | 125.86036 | 32146 ft | 539 kts | 193° |
| 2026-05-04 06:31 | 44.32529 | 125.85235 | 32642 ft | 539 kts | 193° |
| 2026-05-04 06:31 | 44.28822 | 125.84431 | 33072 ft | 539 kts | 193° |
| 2026-05-04 06:31 | 44.25107 | 125.83625 | 33490 ft | 540 kts | 193° |
| 2026-05-04 06:31 | 44.21372 | 125.83006 | 33872 ft | 542 kts | 186° |
| 2026-05-04 06:32 | 44.17585 | 125.83065 | 34091 ft | 548 kts | 178° |
| 2026-05-04 06:33 | 43.91506 | 125.88681 | 34163 ft | 535 kts | 188° |
| 2026-05-04 06:34 | 43.84242 | 125.87128 | 34163 ft | 530 kts | 195° |
| 2026-05-04 06:34 | 43.77027 | 125.84998 | 34163 ft | 532 kts | 202° |
| 2026-05-04 06:36 | 43.51069 | 125.66558 | 34170 ft | 524 kts | 213° |
| 2026-05-04 06:37 | 43.44584 | 125.61959 | 34181 ft | 524 kts | 213° |
| 2026-05-04 06:37 | 43.38099 | 125.57365 | 34180 ft | 524 kts | 213° |
| 2026-05-04 06:38 | 43.31624 | 125.52780 | 34182 ft | 524 kts | 213° |
| 2026-05-04 06:40 | 43.05742 | 125.34465 | 34199 ft | 523 kts | 213° |
| 2026-05-04 06:40 | 42.99266 | 125.29947 | 34201 ft | 523 kts | 213° |
| 2026-05-04 06:41 | 42.92792 | 125.25452 | 34198 ft | 522 kts | 213° |
| 2026-05-04 06:41 | 42.86323 | 125.20953 | 34206 ft | 522 kts | 213° |
| 2026-05-04 06:42 | 42.79864 | 125.16448 | 34208 ft | 521 kts | 213° |
| 2026-05-04 06:44 | 42.54170 | 124.98446 | 34223 ft | 519 kts | 213° |
| 2026-05-04 06:44 | 42.47752 | 124.93975 | 34226 ft | 519 kts | 213° |
| 2026-05-04 06:45 | 42.41338 | 124.89519 | 34242 ft | 518 kts | 213° |
| 2026-05-04 06:45 | 42.34920 | 124.85069 | 34238 ft | 518 kts | 212° |
| 2026-05-04 06:46 | 42.28502 | 124.80629 | 34248 ft | 517 kts | 212° |
| 2026-05-04 06:46 | 42.22134 | 124.76235 | 34249 ft | 517 kts | 212° |
| 2026-05-04 06:48 | 41.96605 | 124.58666 | 34263 ft | 513 kts | 214° |
| 2026-05-04 06:50 | 41.71877 | 124.39781 | 34275 ft | 510 kts | 215° |
| 2026-05-04 06:51 | 41.65704 | 124.35101 | 34274 ft | 510 kts | 214° |
| 2026-05-04 06:51 | 41.59535 | 124.30434 | 34279 ft | 509 kts | 214° |
| 2026-05-04 06:52 | 41.53406 | 124.25807 | 34282 ft | 509 kts | 214° |
| 2026-05-04 06:52 | 41.47241 | 124.21162 | 34285 ft | 509 kts | 214° |
| 2026-05-04 06:53 | 41.41069 | 124.16531 | 34293 ft | 509 kts | 214° |
| 2026-05-04 06:53 | 41.34859 | 124.12003 | 34292 ft | 509 kts | 213° |
| 2026-05-04 06:54 | 41.28642 | 124.07521 | 34300 ft | 508 kts | 213° |
| 2026-05-04 06:54 | 41.22432 | 124.03040 | 34303 ft | 508 kts | 213° |
| 2026-05-04 06:55 | 41.16219 | 123.98558 | 34306 ft | 508 kts | 213° |
| 2026-05-04 06:55 | 41.10010 | 123.94084 | 34303 ft | 507 kts | 213° |
| 2026-05-04 06:57 | 40.85305 | 123.76385 | 34328 ft | 504 kts | 213° |
| 2026-05-04 06:58 | 40.79125 | 123.71918 | 34321 ft | 503 kts | 213° |
| 2026-05-04 06:58 | 40.73061 | 123.67463 | 34324 ft | 501 kts | 214° |
| 2026-05-04 06:59 | 40.66987 | 123.62995 | 34326 ft | 499 kts | 214° |
| 2026-05-04 06:59 | 40.60928 | 123.58551 | 34333 ft | 498 kts | 213° |
| 2026-05-04 07:01 | 40.36787 | 123.40946 | 34336 ft | 494 kts | 213° |
| 2026-05-04 07:02 | 40.30787 | 123.36588 | 34343 ft | 493 kts | 214° |
| 2026-05-04 07:02 | 40.24830 | 123.32271 | 34353 ft | 492 kts | 214° |
| 2026-05-04 07:03 | 40.18852 | 123.27947 | 34346 ft | 491 kts | 214° |
| 2026-05-04 07:03 | 40.12876 | 123.23634 | 34352 ft | 490 kts | 214° |
| 2026-05-04 07:04 | 40.06914 | 123.19339 | 34359 ft | 489 kts | 214° |
| 2026-05-04 07:04 | 40.01180 | 123.15212 | 34355 ft | 488 kts | 213° |
| 2026-05-04 07:05 | 39.95238 | 123.10943 | 34358 ft | 488 kts | 213° |
| 2026-05-04 07:05 | 39.89308 | 123.06651 | 34362 ft | 487 kts | 213° |
| 2026-05-04 07:06 | 39.80427 | 123.00210 | 34367 ft | 487 kts | 214° |
| 2026-05-04 07:07 | 39.74506 | 122.95925 | 34374 ft | 487 kts | 214° |
| 2026-05-04 07:09 | 39.50827 | 122.78881 | 34388 ft | 488 kts | 213° |
| 2026-05-04 07:09 | 39.44890 | 122.74628 | 34396 ft | 488 kts | 213° |
| 2026-05-04 07:10 | 39.39910 | 122.71068 | 34399 ft | 488 kts | 213° |
| 2026-05-04 07:12 | 39.16458 | 122.53541 | 34414 ft | 487 kts | 216° |
| 2026-05-04 07:12 | 39.10704 | 122.48906 | 34413 ft | 488 kts | 216° |
| 2026-05-04 07:13 | 39.04940 | 122.44298 | 34421 ft | 488 kts | 216° |
| 2026-05-04 07:13 | 38.99170 | 122.39707 | 34427 ft | 488 kts | 216° |
| 2026-05-04 07:14 | 38.84713 | 122.28242 | 34436 ft | 488 kts | 216° |
| 2026-05-04 07:15 | 38.78941 | 122.23666 | 34443 ft | 487 kts | 216° |
| 2026-05-04 07:15 | 38.73281 | 122.18916 | 34442 ft | 483 kts | 222° |
| 2026-05-04 07:16 | 38.68672 | 122.12883 | 34447 ft | 474 kts | 238° |
| 2026-05-04 07:16 | 38.65577 | 122.05487 | 34453 ft | 466 kts | 253° |
| 2026-05-04 07:17 | 38.64152 | 121.97522 | 34447 ft | 462 kts | 263° |
| 2026-05-04 07:17 | 38.63003 | 121.89432 | 34447 ft | 464 kts | 261° |
| 2026-05-04 07:18 | 38.61452 | 121.81413 | 34442 ft | 465 kts | 258° |
| 2026-05-04 07:18 | 38.59699 | 121.73446 | 34441 ft | 466 kts | 257° |
| 2026-05-04 07:19 | 38.57906 | 121.65485 | 34442 ft | 466 kts | 257° |
| 2026-05-04 07:19 | 38.56116 | 121.57525 | 34440 ft | 466 kts | 257° |
| 2026-05-04 07:20 | 38.54325 | 121.49554 | 34445 ft | 467 kts | 257° |
| 2026-05-04 07:20 | 38.52532 | 121.41593 | 34441 ft | 467 kts | 257° |
| 2026-05-04 07:22 | 38.44330 | 121.10203 | 34446 ft | 474 kts | 242° |
| 2026-05-04 07:23 | 38.40733 | 121.03126 | 34463 ft | 476 kts | 240° |
| 2026-05-04 07:23 | 38.37114 | 120.96069 | 34458 ft | 475 kts | 240° |
| 2026-05-04 07:24 | 38.33582 | 120.88964 | 34462 ft | 474 kts | 241° |
| 2026-05-04 07:24 | 38.30085 | 120.81846 | 34454 ft | 474 kts | 241° |
| 2026-05-04 07:26 | 38.09587 | 120.61599 | 34457 ft | 490 kts | 205° |
| 2026-05-04 07:27 | 38.03327 | 120.58252 | 34454 ft | 488 kts | 205° |
| 2026-05-04 07:27 | 37.96695 | 120.56211 | 34460 ft | 496 kts | 188° |
| 2026-05-04 07:28 | 37.89773 | 120.55914 | 34462 ft | 498 kts | 184° |
| 2026-05-04 07:28 | 37.82849 | 120.55736 | 34464 ft | 497 kts | 185° |
| 2026-05-04 07:29 | 37.75953 | 120.55318 | 34466 ft | 495 kts | 187° |
| 2026-05-04 07:29 | 37.69089 | 120.54795 | 34464 ft | 494 kts | 187° |
| 2026-05-04 07:30 | 37.62243 | 120.54137 | 34466 ft | 492 kts | 189° |
| 2026-05-04 07:30 | 37.55447 | 120.53133 | 34464 ft | 491 kts | 191° |
| 2026-05-04 07:31 | 37.48722 | 120.52073 | 34465 ft | 490 kts | 191° |
| 2026-05-04 07:33 | 37.21677 | 120.47989 | 34463 ft | 488 kts | 191° |
| 2026-05-04 07:33 | 37.14949 | 120.46983 | 34473 ft | 487 kts | 191° |
| 2026-05-04 07:34 | 37.08259 | 120.45984 | 34469 ft | 486 kts | 191° |
| 2026-05-04 07:34 | 37.01506 | 120.44978 | 34470 ft | 485 kts | 191° |
| 2026-05-04 07:35 | 36.94847 | 120.43987 | 34473 ft | 485 kts | 191° |
| 2026-05-04 07:35 | 36.88151 | 120.42992 | 34477 ft | 484 kts | 191° |
| 2026-05-04 07:36 | 36.81459 | 120.42001 | 34478 ft | 484 kts | 191° |
| 2026-05-04 07:38 | 36.54732 | 120.38083 | 34489 ft | 483 kts | 189° |
| 2026-05-04 07:38 | 36.48004 | 120.37613 | 34493 ft | 486 kts | 186° |
| 2026-05-04 07:39 | 36.41238 | 120.37415 | 34495 ft | 486 kts | 185° |
| 2026-05-04 07:39 | 36.34478 | 120.37213 | 34494 ft | 486 kts | 186° |
| 2026-05-04 07:40 | 36.27704 | 120.37670 | 34500 ft | 493 kts | 172° |
| 2026-05-04 07:40 | 36.21233 | 120.40653 | 34508 ft | 502 kts | 154° |
| 2026-05-04 07:41 | 36.15277 | 120.45225 | 34515 ft | 504 kts | 150° |
| 2026-05-04 07:41 | 36.09064 | 120.48916 | 34516 ft | 496 kts | 167° |
| 2026-05-04 07:42 | 36.02334 | 120.50075 | 34523 ft | 485 kts | 185° |
| 2026-05-04 07:42 | 35.95607 | 120.49833 | 34522 ft | 487 kts | 180° |
| 2026-05-04 07:43 | 35.88942 | 120.51660 | 34526 ft | 498 kts | 161° |
| 2026-05-04 07:43 | 35.82750 | 120.55587 | 34532 ft | 502 kts | 154° |
| 2026-05-04 07:44 | 35.76596 | 120.59621 | 34529 ft | 500 kts | 157° |
| 2026-05-04 07:44 | 35.70358 | 120.63429 | 34535 ft | 501 kts | 155° |
| 2026-05-04 07:45 | 35.64226 | 120.67552 | 34531 ft | 502 kts | 154° |
| 2026-05-04 07:45 | 35.58142 | 120.71748 | 34533 ft | 501 kts | 154° |
| 2026-05-04 07:46 | 35.52093 | 120.75894 | 34537 ft | 501 kts | 154° |
| 2026-05-04 07:46 | 35.45867 | 120.79665 | 34538 ft | 497 kts | 161° |
| 2026-05-04 07:47 | 35.39458 | 120.82842 | 34537 ft | 496 kts | 162° |
| 2026-05-04 07:49 | 35.13811 | 120.95449 | 34542 ft | 497 kts | 162° |
| 2026-05-04 07:49 | 35.07404 | 120.98631 | 34546 ft | 497 kts | 162° |
| 2026-05-04 07:50 | 35.01001 | 121.01810 | 34545 ft | 497 kts | 162° |
| 2026-05-04 07:50 | 34.94598 | 121.04986 | 34548 ft | 497 kts | 162° |
| 2026-05-04 07:51 | 34.88220 | 121.08143 | 34549 ft | 497 kts | 162° |
| 2026-05-04 07:51 | 34.81813 | 121.11309 | 34556 ft | 497 kts | 163° |
| 2026-05-04 07:52 | 34.75408 | 121.14469 | 34546 ft | 497 kts | 163° |
| 2026-05-04 07:52 | 34.69007 | 121.17622 | 34550 ft | 496 kts | 163° |
| 2026-05-04 07:54 | 34.43447 | 121.30158 | 34548 ft | 494 kts | 164° |
| 2026-05-04 07:55 | 34.37059 | 121.33273 | 34551 ft | 494 kts | 164° |
| 2026-05-04 07:55 | 34.30684 | 121.36368 | 34546 ft | 494 kts | 164° |
| 2026-05-04 07:56 | 34.24310 | 121.39465 | 34549 ft | 493 kts | 164° |
| 2026-05-04 07:56 | 34.17943 | 121.42559 | 34548 ft | 493 kts | 164° |
| 2026-05-04 07:57 | 34.11627 | 121.45624 | 34552 ft | 492 kts | 165° |
| 2026-05-04 07:57 | 34.06303 | 121.48204 | 34553 ft | 492 kts | 165° |
| 2026-05-04 07:58 | 33.98927 | 121.51772 | 34555 ft | 491 kts | 165° |
| 2026-05-04 07:58 | 33.93613 | 121.54338 | 34556 ft | 491 kts | 165° |
| 2026-05-04 07:59 | 33.87276 | 121.57394 | 34551 ft | 490 kts | 165° |
| 2026-05-04 07:59 | 33.80996 | 121.60417 | 34555 ft | 489 kts | 166° |
| 2026-05-04 08:00 | 33.74679 | 121.63454 | 34551 ft | 489 kts | 166° |
| 2026-05-04 08:02 | 33.49595 | 121.75677 | 31654 ft | 485 kts | 165° |
| 2026-05-04 08:02 | 33.46458 | 121.77206 | 31160 ft | 487 kts | 165° |
| 2026-05-04 08:02 | 33.43315 | 121.78739 | 30680 ft | 489 kts | 165° |
| 2026-05-04 08:03 | 33.40161 | 121.80277 | 30201 ft | 490 kts | 164° |
| 2026-05-04 08:03 | 33.37008 | 121.81815 | 29647 ft | 489 kts | 164° |
| 2026-05-04 08:03 | 33.33860 | 121.83352 | 29089 ft | 486 kts | 164° |
| 2026-05-04 08:03 | 33.30746 | 121.84871 | 28541 ft | 482 kts | 164° |
| 2026-05-04 08:04 | 33.27650 | 121.86380 | 28007 ft | 478 kts | 164° |
| 2026-05-04 08:04 | 33.24581 | 121.87873 | 27482 ft | 475 kts | 164° |
| 2026-05-04 08:04 | 33.21531 | 121.89354 | 26968 ft | 471 kts | 164° |
| 2026-05-04 08:04 | 33.18509 | 121.90819 | 26460 ft | 468 kts | 164° |
| 2026-05-04 08:05 | 33.15503 | 121.92276 | 25967 ft | 465 kts | 163° |
| 2026-05-04 08:05 | 33.12519 | 121.93720 | 25479 ft | 462 kts | 163° |
| 2026-05-04 08:05 | 33.09584 | 121.95140 | 25001 ft | 459 kts | 163° |
| 2026-05-04 08:05 | 33.06639 | 121.96564 | 24537 ft | 456 kts | 163° |
| 2026-05-04 08:06 | 33.03707 | 121.97980 | 24073 ft | 453 kts | 162° |
| 2026-05-04 08:06 | 33.00791 | 121.99387 | 23605 ft | 451 kts | 162° |
| 2026-05-04 08:06 | 32.97894 | 122.00785 | 23061 ft | 448 kts | 162° |
| 2026-05-04 08:06 | 32.95022 | 122.02172 | 22518 ft | 445 kts | 162° |
| 2026-05-04 08:08 | 32.75414 | 122.11596 | 19024 ft | 425 kts | 161° |
| 2026-05-04 08:08 | 32.72684 | 122.12900 | 18552 ft | 422 kts | 161° |
| 2026-05-04 08:10 | 32.51531 | 122.23009 | 14506 ft | 395 kts | 160° |
| 2026-05-04 08:11 | 32.48991 | 122.24220 | 14032 ft | 392 kts | 160° |
| 2026-05-04 08:11 | 32.43993 | 122.26602 | 13173 ft | 387 kts | 160° |
| 2026-05-04 08:11 | 32.41499 | 122.27788 | 12779 ft | 385 kts | 160° |
| 2026-05-04 08:12 | 32.39033 | 122.28961 | 12412 ft | 383 kts | 160° |
| 2026-05-04 08:12 | 32.36554 | 122.30140 | 12296 ft | 382 kts | 160° |
| 2026-05-04 08:12 | 32.34085 | 122.31313 | 12275 ft | 382 kts | 160° |
| 2026-05-04 08:12 | 32.31625 | 122.32481 | 12274 ft | 382 kts | 160° |
| 2026-05-04 08:13 | 32.29154 | 122.33654 | 12271 ft | 382 kts | 160° |
| 2026-05-04 08:13 | 32.26688 | 122.34823 | 12270 ft | 382 kts | 160° |
| 2026-05-04 08:13 | 32.24225 | 122.35991 | 12272 ft | 382 kts | 160° |
| 2026-05-04 08:13 | 32.21758 | 122.37160 | 12271 ft | 382 kts | 160° |
| 2026-05-04 08:14 | 32.19292 | 122.38327 | 12269 ft | 382 kts | 160° |
| 2026-05-04 08:14 | 32.16823 | 122.39496 | 12271 ft | 382 kts | 160° |
| 2026-05-04 08:14 | 32.14361 | 122.40661 | 12275 ft | 382 kts | 160° |
| 2026-05-04 08:16 | 31.97126 | 122.48785 | 12266 ft | 382 kts | 160° |
| 2026-05-04 08:16 | 31.94658 | 122.49942 | 12272 ft | 382 kts | 160° |
| 2026-05-04 08:16 | 31.92189 | 122.51100 | 12269 ft | 382 kts | 160° |
| 2026-05-04 08:17 | 31.89721 | 122.52259 | 12272 ft | 382 kts | 160° |
| 2026-05-04 08:17 | 31.87254 | 122.53418 | 12266 ft | 382 kts | 160° |
| 2026-05-04 08:17 | 31.84788 | 122.54576 | 12266 ft | 382 kts | 160° |
| 2026-05-04 08:17 | 31.82324 | 122.55732 | 12270 ft | 382 kts | 160° |
| 2026-05-04 08:19 | 31.65064 | 122.63825 | 12272 ft | 382 kts | 160° |
| 2026-05-04 08:19 | 31.62618 | 122.64934 | 12225 ft | 382 kts | 163° |
| 2026-05-04 08:20 | 31.60052 | 122.65646 | 12035 ft | 378 kts | 175° |
| 2026-05-04 08:20 | 31.57452 | 122.65579 | 11847 ft | 373 kts | 192° |
| 2026-05-04 08:20 | 31.55014 | 122.64656 | 11656 ft | 367 kts | 209° |
| 2026-05-04 08:20 | 31.52920 | 122.62980 | 11478 ft | 363 kts | 225° |
| 2026-05-04 08:21 | 31.51314 | 122.60734 | 11288 ft | 358 kts | 239° |
| 2026-05-04 08:21 | 31.50124 | 122.58178 | 11125 ft | 357 kts | 246° |
| 2026-05-04 08:21 | 31.49091 | 122.55541 | 10920 ft | 355 kts | 248° |
| 2026-05-04 08:21 | 31.48090 | 122.52900 | 10746 ft | 354 kts | 248° |
| 2026-05-04 08:22 | 31.47078 | 122.50266 | 10563 ft | 353 kts | 247° |
| 2026-05-04 08:22 | 31.46033 | 122.47664 | 10385 ft | 353 kts | 244° |
| 2026-05-04 08:24 | 31.31729 | 122.37431 | 9029 ft | 310 kts | 208° |
| 2026-05-04 08:24 | 31.29845 | 122.36376 | 8811 ft | 291 kts | 209° |
| 2026-05-04 08:24 | 31.28038 | 122.35350 | 8629 ft | 289 kts | 209° |
| 2026-05-04 08:24 | 31.26237 | 122.34320 | 8430 ft | 288 kts | 210° |
| 2026-05-04 08:25 | 31.24434 | 122.33287 | 8235 ft | 288 kts | 210° |
| 2026-05-04 08:25 | 31.22651 | 122.32266 | 8058 ft | 278 kts | 210° |
| 2026-05-04 08:25 | 31.21005 | 122.31330 | 7883 ft | 245 kts | 210° |
| 2026-05-04 08:25 | 31.19571 | 122.30443 | 7642 ft | 226 kts | 220° |
| 2026-05-04 08:26 | 31.18477 | 122.29284 | 7370 ft | 210 kts | 219° |
| 2026-05-04 08:27 | 31.09207 | 122.24460 | 6342 ft | 208 kts | 210° |
| 2026-05-04 08:28 | 31.07923 | 122.23756 | 6044 ft | 200 kts | 210° |
| 2026-05-04 08:28 | 31.06652 | 122.23050 | 5344 ft | 199 kts | 210° |
| 2026-05-04 08:28 | 31.05431 | 122.22369 | 4897 ft | 195 kts | 210° |
| 2026-05-04 08:28 | 31.04205 | 122.21679 | 4535 ft | 193 kts | 210° |
| 2026-05-04 08:29 | 31.03005 | 122.21002 | 4392 ft | 191 kts | 210° |
| 2026-05-04 08:29 | 31.01805 | 122.20323 | 4396 ft | 192 kts | 209° |
| 2026-05-04 08:29 | 31.00604 | 122.19642 | 4389 ft | 192 kts | 210° |
| 2026-05-04 08:31 | 30.92208 | 122.14867 | 4391 ft | 192 kts | 209° |
| 2026-05-04 08:33 | 30.83792 | 122.10079 | 4387 ft | 193 kts | 209° |
| 2026-05-04 08:33 | 30.82586 | 122.09394 | 4392 ft | 193 kts | 209° |
| 2026-05-04 08:35 | 30.78058 | 122.00732 | 4391 ft | 187 kts | 253° |
| 2026-05-04 08:35 | 30.77673 | 121.99270 | 4385 ft | 186 kts | 259° |
| 2026-05-04 08:35 | 30.77656 | 121.97786 | 4383 ft | 184 kts | 283° |
| 2026-05-04 08:35 | 30.78223 | 121.96490 | 4362 ft | 184 kts | 313° |
| 2026-05-04 08:37 | 30.85354 | 121.93170 | 4384 ft | 185 kts | 340° |
| 2026-05-04 08:37 | 30.86572 | 121.92706 | 4383 ft | 184 kts | 340° |
| 2026-05-04 08:37 | 30.87795 | 121.92243 | 4372 ft | 185 kts | 340° |
| 2026-05-04 08:38 | 30.89021 | 121.91778 | 4394 ft | 186 kts | 340° |
| 2026-05-04 08:38 | 30.90249 | 121.91314 | 4370 ft | 185 kts | 339° |
| 2026-05-04 08:38 | 30.91477 | 121.90851 | 4274 ft | 185 kts | 340° |
| 2026-05-04 08:40 | 30.98403 | 121.88246 | 2912 ft | 145 kts | 339° |
| 2026-05-04 08:40 | 30.99354 | 121.87889 | 2735 ft | 146 kts | 338° |
| 2026-05-04 08:40 | 31.00343 | 121.87514 | 2597 ft | 148 kts | 339° |
| 2026-05-04 08:41 | 31.01320 | 121.87149 | 2334 ft | 146 kts | 340° |
| 2026-05-04 08:41 | 31.02278 | 121.86788 | 2136 ft | 147 kts | 339° |
| 2026-05-04 08:41 | 31.03261 | 121.86418 | 1968 ft | 149 kts | 339° |
| 2026-05-04 08:41 | 31.04253 | 121.86042 | 1782 ft | 151 kts | 340° |
| 2026-05-04 08:42 | 31.05249 | 121.85670 | 1573 ft | 150 kts | 340° |
| 2026-05-04 08:42 | 31.06244 | 121.85294 | 1361 ft | 149 kts | 340° |
| 2026-05-04 08:42 | 31.07230 | 121.84922 | 1095 ft | 149 kts | 340° |
| 2026-05-04 08:42 | 31.08219 | 121.84552 | 976 ft | 150 kts | 341° |
| 2026-05-04 08:43 | 31.09209 | 121.84176 | 785 ft | 148 kts | 342° |
| 2026-05-04 08:43 | 31.10180 | 121.83809 | 537 ft | 147 kts | 344° |
| 2026-05-04 08:43 | 31.11148 | 121.83450 | 380 ft | 145 kts | 345° |
| 2026-05-04 08:43 | 31.12084 | 121.83097 | 253 ft | 143 kts | 344° |
| 2026-05-04 08:44 | 31.13019 | 121.82714 | 49 ft | 141 kts | 343° |
| 2026-05-04 08:44 | 31.13827 | 121.82420 | 30 ft | 95 kts | 344° |